sensor_id;sensor_type;location;lat;lon;timestamp;P1;durP1;ratioP1;P2;durP2;ratioP2
72621;SDS011;60665;53.506;9.582;2023-08-06T00:01:25;2.72;;;1.20;;
72621;SDS011;60665;53.506;9.582;2023-08-06T00:03:51;3.20;;;1.20;;
72621;SDS011;60665;53.506;9.582;2023-08-06T00:06:16;3.10;;;1.30;;
72621;SDS011;60665;53.506;9.582;2023-08-06T00:08:41;4.07;;;1.15;;
72621;SDS011;60665;53.506;9.582;2023-08-06T00:11:07;4.05;;;1.10;;
72621;SDS011;60665;53.506;9.582;2023-08-06T00:13:32;3.35;;;1.50;;
72621;SDS011;60665;53.506;9.582;2023-08-06T00:16:08;2.78;;;1.08;;
72621;SDS011;60665;53.506;9.582;2023-08-06T00:18:34;3.00;;;1.33;;
72621;SDS011;60665;53.506;9.582;2023-08-06T00:20:59;2.85;;;1.20;;
72621;SDS011;60665;53.506;9.582;2023-08-06T00:23:25;2.55;;;1.10;;
72621;SDS011;60665;53.506;9.582;2023-08-06T00:25:50;6.45;;;1.17;;
72621;SDS011;60665;53.506;9.582;2023-08-06T00:28:15;2.90;;;1.10;;
72621;SDS011;60665;53.506;9.582;2023-08-06T00:30:41;3.13;;;1.27;;
72621;SDS011;60665;53.506;9.582;2023-08-06T00:33:06;2.88;;;0.98;;
72621;SDS011;60665;53.506;9.582;2023-08-06T00:35:31;3.05;;;1.30;;
72621;SDS011;60665;53.506;9.582;2023-08-06T00:37:57;3.92;;;1.10;;
72621;SDS011;60665;53.506;9.582;2023-08-06T00:40:22;2.97;;;1.10;;
72621;SDS011;60665;53.506;9.582;2023-08-06T00:42:48;3.30;;;1.13;;
72621;SDS011;60665;53.506;9.582;2023-08-06T00:45:13;2.42;;;0.90;;
72621;SDS011;60665;53.506;9.582;2023-08-06T00:47:39;2.78;;;0.90;;
72621;SDS011;60665;53.506;9.582;2023-08-06T00:50:06;2.15;;;1.02;;
72621;SDS011;60665;53.506;9.582;2023-08-06T00:52:32;2.72;;;1.25;;
72621;SDS011;60665;53.506;9.582;2023-08-06T00:54:58;2.92;;;1.20;;
72621;SDS011;60665;53.506;9.582;2023-08-06T00:57:24;3.08;;;1.00;;
72621;SDS011;60665;53.506;9.582;2023-08-06T00:59:50;2.83;;;1.10;;
72621;SDS011;60665;53.506;9.582;2023-08-06T01:02:16;2.70;;;1.23;;
72621;SDS011;60665;53.506;9.582;2023-08-06T01:04:41;3.17;;;1.20;;
72621;SDS011;60665;53.506;9.582;2023-08-06T01:09:54;3.75;;;1.20;;
72621;SDS011;60665;53.506;9.582;2023-08-06T01:12:45;2.88;;;1.23;;
72621;SDS011;60665;53.506;9.582;2023-08-06T01:17:42;2.70;;;1.17;;
72621;SDS011;60665;53.506;9.582;2023-08-06T01:20:09;3.63;;;1.38;;
72621;SDS011;60665;53.506;9.582;2023-08-06T01:22:35;3.33;;;1.50;;
72621;SDS011;60665;53.506;9.582;2023-08-06T01:25:00;3.80;;;1.52;;
72621;SDS011;60665;53.506;9.582;2023-08-06T01:30:26;4.15;;;1.90;;
72621;SDS011;60665;53.506;9.582;2023-08-06T01:32:54;4.25;;;2.13;;
72621;SDS011;60665;53.506;9.582;2023-08-06T01:35:23;4.85;;;1.90;;
72621;SDS011;60665;53.506;9.582;2023-08-06T01:37:50;3.35;;;1.67;;
72621;SDS011;60665;53.506;9.582;2023-08-06T01:40:16;4.30;;;1.95;;
72621;SDS011;60665;53.506;9.582;2023-08-06T01:42:41;3.70;;;1.60;;
72621;SDS011;60665;53.506;9.582;2023-08-06T01:45:07;4.10;;;2.03;;
72621;SDS011;60665;53.506;9.582;2023-08-06T01:47:33;4.63;;;2.35;;
72621;SDS011;60665;53.506;9.582;2023-08-06T01:49:58;4.95;;;2.28;;
72621;SDS011;60665;53.506;9.582;2023-08-06T01:52:24;5.50;;;2.40;;
72621;SDS011;60665;53.506;9.582;2023-08-06T01:54:49;6.20;;;2.10;;
72621;SDS011;60665;53.506;9.582;2023-08-06T01:57:14;4.63;;;2.03;;
72621;SDS011;60665;53.506;9.582;2023-08-06T01:59:40;4.18;;;2.20;;
72621;SDS011;60665;53.506;9.582;2023-08-06T02:02:05;7.25;;;2.92;;
72621;SDS011;60665;53.506;9.582;2023-08-06T02:04:30;4.32;;;2.45;;
72621;SDS011;60665;53.506;9.582;2023-08-06T02:06:56;5.80;;;2.67;;
72621;SDS011;60665;53.506;9.582;2023-08-06T02:09:21;5.22;;;2.47;;
72621;SDS011;60665;53.506;9.582;2023-08-06T02:11:47;4.43;;;2.38;;
72621;SDS011;60665;53.506;9.582;2023-08-06T02:14:12;4.78;;;2.63;;
72621;SDS011;60665;53.506;9.582;2023-08-06T02:16:37;4.70;;;2.38;;
72621;SDS011;60665;53.506;9.582;2023-08-06T02:19:03;4.50;;;2.20;;
72621;SDS011;60665;53.506;9.582;2023-08-06T02:21:28;4.57;;;1.80;;
72621;SDS011;60665;53.506;9.582;2023-08-06T02:23:53;5.88;;;2.05;;
72621;SDS011;60665;53.506;9.582;2023-08-06T02:26:19;4.10;;;2.17;;
72621;SDS011;60665;53.506;9.582;2023-08-06T02:28:45;5.93;;;2.10;;
72621;SDS011;60665;53.506;9.582;2023-08-06T02:31:10;4.70;;;2.20;;
72621;SDS011;60665;53.506;9.582;2023-08-06T02:33:35;4.57;;;2.60;;
72621;SDS011;60665;53.506;9.582;2023-08-06T02:36:04;8.73;;;2.58;;
72621;SDS011;60665;53.506;9.582;2023-08-06T02:38:33;6.20;;;2.28;;
72621;SDS011;60665;53.506;9.582;2023-08-06T02:40:58;4.90;;;2.53;;
72621;SDS011;60665;53.506;9.582;2023-08-06T02:43:24;4.78;;;2.45;;
72621;SDS011;60665;53.506;9.582;2023-08-06T02:45:49;6.40;;;2.55;;
72621;SDS011;60665;53.506;9.582;2023-08-06T02:48:14;4.53;;;2.50;;
72621;SDS011;60665;53.506;9.582;2023-08-06T02:50:40;4.65;;;2.03;;
72621;SDS011;60665;53.506;9.582;2023-08-06T02:53:06;4.07;;;1.77;;
72621;SDS011;60665;53.506;9.582;2023-08-06T02:55:32;5.43;;;2.17;;
72621;SDS011;60665;53.506;9.582;2023-08-06T02:57:59;4.40;;;2.03;;
72621;SDS011;60665;53.506;9.582;2023-08-06T03:00:28;4.85;;;2.40;;
72621;SDS011;60665;53.506;9.582;2023-08-06T03:02:53;4.85;;;2.40;;
72621;SDS011;60665;53.506;9.582;2023-08-06T03:05:19;5.22;;;2.05;;
72621;SDS011;60665;53.506;9.582;2023-08-06T03:07:44;4.22;;;1.58;;
72621;SDS011;60665;53.506;9.582;2023-08-06T03:10:10;4.78;;;2.30;;
72621;SDS011;60665;53.506;9.582;2023-08-06T03:12:35;7.38;;;3.00;;
72621;SDS011;60665;53.506;9.582;2023-08-06T03:15:00;6.35;;;2.20;;
72621;SDS011;60665;53.506;9.582;2023-08-06T03:17:26;5.72;;;2.13;;
72621;SDS011;60665;53.506;9.582;2023-08-06T03:19:51;5.75;;;2.95;;
72621;SDS011;60665;53.506;9.582;2023-08-06T03:22:16;7.97;;;2.83;;
72621;SDS011;60665;53.506;9.582;2023-08-06T03:24:42;5.00;;;2.80;;
72621;SDS011;60665;53.506;9.582;2023-08-06T03:27:07;5.82;;;2.67;;
72621;SDS011;60665;53.506;9.582;2023-08-06T03:29:33;5.90;;;2.95;;
72621;SDS011;60665;53.506;9.582;2023-08-06T03:31:58;7.10;;;2.97;;
72621;SDS011;60665;53.506;9.582;2023-08-06T03:34:23;6.88;;;3.42;;
72621;SDS011;60665;53.506;9.582;2023-08-06T03:36:49;5.97;;;3.30;;
72621;SDS011;60665;53.506;9.582;2023-08-06T03:39:14;5.82;;;3.33;;
72621;SDS011;60665;53.506;9.582;2023-08-06T03:41:40;8.50;;;3.75;;
72621;SDS011;60665;53.506;9.582;2023-08-06T03:44:05;5.78;;;2.70;;
72621;SDS011;60665;53.506;9.582;2023-08-06T03:46:31;6.38;;;3.30;;
72621;SDS011;60665;53.506;9.582;2023-08-06T03:49:00;10.52;;;3.75;;
72621;SDS011;60665;53.506;9.582;2023-08-06T03:51:25;6.18;;;3.30;;
72621;SDS011;60665;53.506;9.582;2023-08-06T03:53:51;6.32;;;2.95;;
72621;SDS011;60665;53.506;9.582;2023-08-06T03:56:16;6.38;;;3.50;;
72621;SDS011;60665;53.506;9.582;2023-08-06T03:58:42;6.60;;;3.63;;
72621;SDS011;60665;53.506;9.582;2023-08-06T04:01:07;6.60;;;3.28;;
72621;SDS011;60665;53.506;9.582;2023-08-06T04:03:33;8.70;;;3.55;;
72621;SDS011;60665;53.506;9.582;2023-08-06T04:05:58;7.88;;;3.90;;
72621;SDS011;60665;53.506;9.582;2023-08-06T04:08:24;5.90;;;3.38;;
72621;SDS011;60665;53.506;9.582;2023-08-06T04:10:52;6.80;;;3.47;;
72621;SDS011;60665;53.506;9.582;2023-08-06T04:13:18;7.88;;;3.75;;
72621;SDS011;60665;53.506;9.582;2023-08-06T04:15:43;8.15;;;3.83;;
72621;SDS011;60665;53.506;9.582;2023-08-06T04:18:09;9.52;;;3.88;;
72621;SDS011;60665;53.506;9.582;2023-08-06T04:20:34;7.72;;;3.67;;
72621;SDS011;60665;53.506;9.582;2023-08-06T04:23:05;8.10;;;4.60;;
72621;SDS011;60665;53.506;9.582;2023-08-06T04:25:31;9.07;;;3.55;;
72621;SDS011;60665;53.506;9.582;2023-08-06T04:27:56;6.85;;;3.58;;
72621;SDS011;60665;53.506;9.582;2023-08-06T04:30:21;7.00;;;3.38;;
72621;SDS011;60665;53.506;9.582;2023-08-06T04:32:49;7.68;;;3.00;;
72621;SDS011;60665;53.506;9.582;2023-08-06T04:35:15;7.40;;;3.30;;
72621;SDS011;60665;53.506;9.582;2023-08-06T04:37:40;9.23;;;3.63;;
72621;SDS011;60665;53.506;9.582;2023-08-06T04:40:05;6.55;;;4.07;;
72621;SDS011;60665;53.506;9.582;2023-08-06T04:42:31;7.88;;;3.45;;
72621;SDS011;60665;53.506;9.582;2023-08-06T04:44:57;8.52;;;3.92;;
72621;SDS011;60665;53.506;9.582;2023-08-06T04:47:22;7.28;;;3.40;;
72621;SDS011;60665;53.506;9.582;2023-08-06T04:49:47;7.18;;;3.58;;
72621;SDS011;60665;53.506;9.582;2023-08-06T04:52:13;8.43;;;3.17;;
72621;SDS011;60665;53.506;9.582;2023-08-06T04:54:38;5.88;;;3.28;;
72621;SDS011;60665;53.506;9.582;2023-08-06T04:57:04;7.07;;;3.38;;
72621;SDS011;60665;53.506;9.582;2023-08-06T04:59:29;7.57;;;3.10;;
72621;SDS011;60665;53.506;9.582;2023-08-06T05:01:55;6.30;;;3.38;;
72621;SDS011;60665;53.506;9.582;2023-08-06T05:04:20;9.27;;;3.67;;
72621;SDS011;60665;53.506;9.582;2023-08-06T05:06:45;8.95;;;3.97;;
72621;SDS011;60665;53.506;9.582;2023-08-06T05:09:11;8.02;;;4.20;;
72621;SDS011;60665;53.506;9.582;2023-08-06T05:11:36;5.78;;;2.92;;
72621;SDS011;60665;53.506;9.582;2023-08-06T05:14:01;7.57;;;3.47;;
72621;SDS011;60665;53.506;9.582;2023-08-06T05:16:27;7.00;;;3.63;;
72621;SDS011;60665;53.506;9.582;2023-08-06T05:18:52;7.45;;;3.53;;
72621;SDS011;60665;53.506;9.582;2023-08-06T05:21:18;7.15;;;3.70;;
72621;SDS011;60665;53.506;9.582;2023-08-06T05:23:43;6.68;;;3.80;;
72621;SDS011;60665;53.506;9.582;2023-08-06T05:26:09;6.53;;;3.42;;
72621;SDS011;60665;53.506;9.582;2023-08-06T05:28:34;7.47;;;3.72;;
72621;SDS011;60665;53.506;9.582;2023-08-06T05:31:02;7.15;;;3.60;;
72621;SDS011;60665;53.506;9.582;2023-08-06T05:33:31;8.00;;;4.22;;
72621;SDS011;60665;53.506;9.582;2023-08-06T05:35:56;9.38;;;4.00;;
72621;SDS011;60665;53.506;9.582;2023-08-06T05:38:21;6.78;;;3.72;;
72621;SDS011;60665;53.506;9.582;2023-08-06T05:40:47;7.53;;;3.53;;
72621;SDS011;60665;53.506;9.582;2023-08-06T05:43:13;8.32;;;3.53;;
72621;SDS011;60665;53.506;9.582;2023-08-06T05:45:38;6.78;;;3.42;;
72621;SDS011;60665;53.506;9.582;2023-08-06T05:48:03;9.50;;;4.10;;
72621;SDS011;60665;53.506;9.582;2023-08-06T05:50:29;6.45;;;3.78;;
72621;SDS011;60665;53.506;9.582;2023-08-06T05:52:54;6.63;;;3.83;;
72621;SDS011;60665;53.506;9.582;2023-08-06T05:55:20;7.70;;;3.40;;
72621;SDS011;60665;53.506;9.582;2023-08-06T05:57:45;6.97;;;3.97;;
72621;SDS011;60665;53.506;9.582;2023-08-06T06:00:11;7.38;;;3.97;;
72621;SDS011;60665;53.506;9.582;2023-08-06T06:02:36;9.35;;;4.18;;
72621;SDS011;60665;53.506;9.582;2023-08-06T06:05:03;6.47;;;3.22;;
72621;SDS011;60665;53.506;9.582;2023-08-06T06:07:29;10.55;;;3.28;;
72621;SDS011;60665;53.506;9.582;2023-08-06T06:09:54;7.43;;;3.15;;
72621;SDS011;60665;53.506;9.582;2023-08-06T06:12:19;7.43;;;3.13;;
72621;SDS011;60665;53.506;9.582;2023-08-06T06:14:47;7.97;;;3.67;;
72621;SDS011;60665;53.506;9.582;2023-08-06T06:17:12;6.13;;;3.25;;
72621;SDS011;60665;53.506;9.582;2023-08-06T06:19:38;5.95;;;3.58;;
72621;SDS011;60665;53.506;9.582;2023-08-06T06:22:03;6.88;;;3.03;;
72621;SDS011;60665;53.506;9.582;2023-08-06T06:24:29;8.23;;;2.78;;
72621;SDS011;60665;53.506;9.582;2023-08-06T06:26:54;5.88;;;3.03;;
72621;SDS011;60665;53.506;9.582;2023-08-06T06:29:19;6.75;;;3.30;;
72621;SDS011;60665;53.506;9.582;2023-08-06T06:31:45;6.68;;;2.97;;
72621;SDS011;60665;53.506;9.582;2023-08-06T06:34:10;5.10;;;2.47;;
72621;SDS011;60665;53.506;9.582;2023-08-06T06:36:36;8.20;;;2.88;;
72621;SDS011;60665;53.506;9.582;2023-08-06T06:39:01;8.43;;;2.90;;
72621;SDS011;60665;53.506;9.582;2023-08-06T06:41:27;7.47;;;2.92;;
72621;SDS011;60665;53.506;9.582;2023-08-06T06:43:54;5.38;;;2.90;;
72621;SDS011;60665;53.506;9.582;2023-08-06T06:46:20;7.65;;;3.33;;
72621;SDS011;60665;53.506;9.582;2023-08-06T06:48:45;8.10;;;2.83;;
72621;SDS011;60665;53.506;9.582;2023-08-06T06:51:10;5.32;;;3.03;;
72621;SDS011;60665;53.506;9.582;2023-08-06T06:53:36;5.65;;;2.95;;
72621;SDS011;60665;53.506;9.582;2023-08-06T06:56:02;7.40;;;3.05;;
72621;SDS011;60665;53.506;9.582;2023-08-06T06:58:29;6.47;;;2.83;;
72621;SDS011;60665;53.506;9.582;2023-08-06T07:00:54;6.07;;;2.75;;
72621;SDS011;60665;53.506;9.582;2023-08-06T07:03:20;5.85;;;2.88;;
72621;SDS011;60665;53.506;9.582;2023-08-06T07:05:45;4.97;;;2.58;;
72621;SDS011;60665;53.506;9.582;2023-08-06T07:08:11;6.00;;;2.80;;
72621;SDS011;60665;53.506;9.582;2023-08-06T07:10:37;8.52;;;2.90;;
72621;SDS011;60665;53.506;9.582;2023-08-06T07:13:02;5.40;;;2.40;;
72621;SDS011;60665;53.506;9.582;2023-08-06T07:15:28;4.63;;;2.63;;
72621;SDS011;60665;53.506;9.582;2023-08-06T07:17:53;5.13;;;2.72;;
72621;SDS011;60665;53.506;9.582;2023-08-06T07:20:19;6.20;;;3.10;;
72621;SDS011;60665;53.506;9.582;2023-08-06T07:22:44;5.53;;;2.72;;
72621;SDS011;60665;53.506;9.582;2023-08-06T07:25:10;6.00;;;2.67;;
72621;SDS011;60665;53.506;9.582;2023-08-06T07:27:35;6.45;;;2.58;;
72621;SDS011;60665;53.506;9.582;2023-08-06T07:30:01;7.68;;;2.67;;
72621;SDS011;60665;53.506;9.582;2023-08-06T07:32:26;6.82;;;2.90;;
72621;SDS011;60665;53.506;9.582;2023-08-06T07:34:53;6.15;;;3.28;;
72621;SDS011;60665;53.506;9.582;2023-08-06T07:37:22;6.57;;;2.65;;
72621;SDS011;60665;53.506;9.582;2023-08-06T07:39:47;5.43;;;2.53;;
72621;SDS011;60665;53.506;9.582;2023-08-06T07:42:13;5.72;;;2.70;;
72621;SDS011;60665;53.506;9.582;2023-08-06T07:44:38;4.82;;;2.40;;
72621;SDS011;60665;53.506;9.582;2023-08-06T07:47:04;5.53;;;2.65;;
72621;SDS011;60665;53.506;9.582;2023-08-06T07:49:30;6.05;;;2.65;;
72621;SDS011;60665;53.506;9.582;2023-08-06T07:51:55;6.70;;;2.67;;
72621;SDS011;60665;53.506;9.582;2023-08-06T07:54:20;8.77;;;2.85;;
72621;SDS011;60665;53.506;9.582;2023-08-06T07:56:46;6.63;;;2.70;;
72621;SDS011;60665;53.506;9.582;2023-08-06T07:59:12;7.50;;;2.92;;
72621;SDS011;60665;53.506;9.582;2023-08-06T08:01:37;5.68;;;2.60;;
72621;SDS011;60665;53.506;9.582;2023-08-06T08:04:03;6.47;;;2.63;;
72621;SDS011;60665;53.506;9.582;2023-08-06T08:06:29;6.63;;;2.47;;
72621;SDS011;60665;53.506;9.582;2023-08-06T08:08:55;7.13;;;2.40;;
72621;SDS011;60665;53.506;9.582;2023-08-06T08:11:20;5.22;;;2.10;;
72621;SDS011;60665;53.506;9.582;2023-08-06T08:13:45;5.55;;;2.45;;
72621;SDS011;60665;53.506;9.582;2023-08-06T08:16:11;4.15;;;2.20;;
72621;SDS011;60665;53.506;9.582;2023-08-06T08:18:36;6.00;;;2.10;;
72621;SDS011;60665;53.506;9.582;2023-08-06T08:21:01;5.70;;;2.58;;
72621;SDS011;60665;53.506;9.582;2023-08-06T08:23:27;5.03;;;2.35;;
72621;SDS011;60665;53.506;9.582;2023-08-06T08:25:52;6.65;;;2.20;;
72621;SDS011;60665;53.506;9.582;2023-08-06T08:28:18;4.18;;;2.20;;
72621;SDS011;60665;53.506;9.582;2023-08-06T08:30:44;5.55;;;2.22;;
72621;SDS011;60665;53.506;9.582;2023-08-06T08:33:09;5.65;;;2.05;;
72621;SDS011;60665;53.506;9.582;2023-08-06T08:35:35;5.35;;;2.40;;
72621;SDS011;60665;53.506;9.582;2023-08-06T08:38:02;3.85;;;1.92;;
72621;SDS011;60665;53.506;9.582;2023-08-06T08:40:29;8.05;;;2.40;;
72621;SDS011;60665;53.506;9.582;2023-08-06T08:42:57;5.75;;;2.42;;
72621;SDS011;60665;53.506;9.582;2023-08-06T08:45:23;5.10;;;2.17;;
72621;SDS011;60665;53.506;9.582;2023-08-06T08:47:51;6.30;;;2.38;;
72621;SDS011;60665;53.506;9.582;2023-08-06T08:50:16;4.22;;;2.25;;
72621;SDS011;60665;53.506;9.582;2023-08-06T08:52:44;4.53;;;2.17;;
72621;SDS011;60665;53.506;9.582;2023-08-06T08:55:14;6.05;;;2.03;;
72621;SDS011;60665;53.506;9.582;2023-08-06T08:57:40;3.70;;;1.98;;
72621;SDS011;60665;53.506;9.582;2023-08-06T09:00:05;4.90;;;2.10;;
72621;SDS011;60665;53.506;9.582;2023-08-06T09:02:32;4.05;;;1.80;;
72621;SDS011;60665;53.506;9.582;2023-08-06T09:04:59;4.13;;;2.10;;
72621;SDS011;60665;53.506;9.582;2023-08-06T09:07:27;5.68;;;1.98;;
72621;SDS011;60665;53.506;9.582;2023-08-06T09:09:55;4.22;;;2.13;;
72621;SDS011;60665;53.506;9.582;2023-08-06T09:12:22;5.57;;;1.90;;
72621;SDS011;60665;53.506;9.582;2023-08-06T09:14:47;4.43;;;1.90;;
72621;SDS011;60665;53.506;9.582;2023-08-06T09:17:12;5.53;;;1.95;;
72621;SDS011;60665;53.506;9.582;2023-08-06T09:19:41;4.65;;;2.08;;
72621;SDS011;60665;53.506;9.582;2023-08-06T09:22:11;3.65;;;1.88;;
72621;SDS011;60665;53.506;9.582;2023-08-06T09:24:38;4.47;;;1.73;;
72621;SDS011;60665;53.506;9.582;2023-08-06T09:27:05;5.25;;;1.85;;
72621;SDS011;60665;53.506;9.582;2023-08-06T09:29:35;5.55;;;2.08;;
72621;SDS011;60665;53.506;9.582;2023-08-06T09:32:05;4.20;;;2.00;;
72621;SDS011;60665;53.506;9.582;2023-08-06T09:34:31;5.13;;;2.13;;
72621;SDS011;60665;53.506;9.582;2023-08-06T09:36:56;5.60;;;2.13;;
72621;SDS011;60665;53.506;9.582;2023-08-06T09:39:26;5.10;;;2.03;;
72621;SDS011;60665;53.506;9.582;2023-08-06T09:42:01;4.82;;;2.10;;
72621;SDS011;60665;53.506;9.582;2023-08-06T09:44:29;4.60;;;2.25;;
72621;SDS011;60665;53.506;9.582;2023-08-06T09:51:50;5.43;;;1.95;;
72621;SDS011;60665;53.506;9.582;2023-08-06T09:54:18;5.38;;;1.92;;
72621;SDS011;60665;53.506;9.582;2023-08-06T09:56:44;4.57;;;2.10;;
72621;SDS011;60665;53.506;9.582;2023-08-06T09:59:09;4.55;;;2.08;;
72621;SDS011;60665;53.506;9.582;2023-08-06T10:01:36;6.05;;;2.25;;
72621;SDS011;60665;53.506;9.582;2023-08-06T10:04:02;4.68;;;2.03;;
72621;SDS011;60665;53.506;9.582;2023-08-06T10:06:29;5.63;;;1.92;;
72621;SDS011;60665;53.506;9.582;2023-08-06T10:08:55;5.75;;;2.63;;
72621;SDS011;60665;53.506;9.582;2023-08-06T10:11:23;5.65;;;2.20;;
72621;SDS011;60665;53.506;9.582;2023-08-06T10:13:51;4.97;;;2.13;;
72621;SDS011;60665;53.506;9.582;2023-08-06T10:16:23;6.47;;;2.53;;
72621;SDS011;60665;53.506;9.582;2023-08-06T10:18:49;4.93;;;2.15;;
72621;SDS011;60665;53.506;9.582;2023-08-06T10:21:15;4.22;;;2.13;;
72621;SDS011;60665;53.506;9.582;2023-08-06T10:23:41;7.07;;;2.20;;
72621;SDS011;60665;53.506;9.582;2023-08-06T10:26:06;5.45;;;1.95;;
72621;SDS011;60665;53.506;9.582;2023-08-06T10:28:38;6.32;;;2.50;;
72621;SDS011;60665;53.506;9.582;2023-08-06T10:31:04;4.57;;;2.42;;
72621;SDS011;60665;53.506;9.582;2023-08-06T10:33:40;5.22;;;2.30;;
72621;SDS011;60665;53.506;9.582;2023-08-06T10:36:09;5.20;;;2.33;;
72621;SDS011;60665;53.506;9.582;2023-08-06T10:38:36;5.55;;;2.20;;
72621;SDS011;60665;53.506;9.582;2023-08-06T10:41:09;7.05;;;2.28;;
72621;SDS011;60665;53.506;9.582;2023-08-06T10:43:40;5.30;;;2.60;;
72621;SDS011;60665;53.506;9.582;2023-08-06T10:46:13;5.25;;;2.28;;
72621;SDS011;60665;53.506;9.582;2023-08-06T10:48:47;4.45;;;2.33;;
72621;SDS011;60665;53.506;9.582;2023-08-06T10:51:13;6.00;;;2.33;;
72621;SDS011;60665;53.506;9.582;2023-08-06T10:53:46;4.90;;;2.17;;
72621;SDS011;60665;53.506;9.582;2023-08-06T10:56:13;6.03;;;1.98;;
72621;SDS011;60665;53.506;9.582;2023-08-06T10:58:56;5.88;;;2.00;;
72621;SDS011;60665;53.506;9.582;2023-08-06T11:01:26;5.97;;;2.03;;
72621;SDS011;60665;53.506;9.582;2023-08-06T11:03:54;8.80;;;2.08;;
72621;SDS011;60665;53.506;9.582;2023-08-06T11:06:20;8.25;;;2.40;;
72621;SDS011;60665;53.506;9.582;2023-08-06T11:08:50;5.63;;;2.40;;
72621;SDS011;60665;53.506;9.582;2023-08-06T11:11:17;4.30;;;2.00;;
72621;SDS011;60665;53.506;9.582;2023-08-06T11:13:43;8.27;;;2.28;;
72621;SDS011;60665;53.506;9.582;2023-08-06T11:16:12;5.75;;;2.30;;
72621;SDS011;60665;53.506;9.582;2023-08-06T11:18:38;4.32;;;2.03;;
72621;SDS011;60665;53.506;9.582;2023-08-06T11:21:05;6.78;;;2.55;;
72621;SDS011;60665;53.506;9.582;2023-08-06T11:23:30;9.65;;;2.92;;
72621;SDS011;60665;53.506;9.582;2023-08-06T11:25:56;6.65;;;2.35;;
72621;SDS011;60665;53.506;9.582;2023-08-06T11:28:22;5.93;;;2.25;;
72621;SDS011;60665;53.506;9.582;2023-08-06T11:30:48;6.70;;;2.25;;
72621;SDS011;60665;53.506;9.582;2023-08-06T11:33:13;4.57;;;2.13;;
72621;SDS011;60665;53.506;9.582;2023-08-06T11:35:39;4.00;;;1.85;;
72621;SDS011;60665;53.506;9.582;2023-08-06T11:38:05;4.30;;;1.92;;
72621;SDS011;60665;53.506;9.582;2023-08-06T11:40:31;3.95;;;1.75;;
72621;SDS011;60665;53.506;9.582;2023-08-06T11:42:58;4.35;;;1.95;;
72621;SDS011;60665;53.506;9.582;2023-08-06T11:45:23;4.45;;;1.88;;
72621;SDS011;60665;53.506;9.582;2023-08-06T11:47:50;3.83;;;1.67;;
72621;SDS011;60665;53.506;9.582;2023-08-06T11:50:24;5.15;;;2.05;;
72621;SDS011;60665;53.506;9.582;2023-08-06T11:52:52;4.28;;;2.03;;
72621;SDS011;60665;53.506;9.582;2023-08-06T11:55:25;10.32;;;2.80;;
72621;SDS011;60665;53.506;9.582;2023-08-06T11:57:51;3.33;;;1.75;;
72621;SDS011;60665;53.506;9.582;2023-08-06T12:00:17;7.13;;;1.95;;
72621;SDS011;60665;53.506;9.582;2023-08-06T12:02:45;4.10;;;1.73;;
72621;SDS011;60665;53.506;9.582;2023-08-06T12:05:15;4.47;;;1.80;;
72621;SDS011;60665;53.506;9.582;2023-08-06T12:07:41;4.70;;;2.05;;
72621;SDS011;60665;53.506;9.582;2023-08-06T12:10:10;4.25;;;1.70;;
72621;SDS011;60665;53.506;9.582;2023-08-06T12:12:35;6.28;;;1.98;;
72621;SDS011;60665;53.506;9.582;2023-08-06T12:15:02;5.03;;;1.90;;
72621;SDS011;60665;53.506;9.582;2023-08-06T12:17:28;6.63;;;2.10;;
72621;SDS011;60665;53.506;9.582;2023-08-06T12:19:53;4.13;;;1.60;;
72621;SDS011;60665;53.506;9.582;2023-08-06T12:22:19;3.42;;;1.48;;
72621;SDS011;60665;53.506;9.582;2023-08-06T12:24:45;5.10;;;1.95;;
72621;SDS011;60665;53.506;9.582;2023-08-06T12:27:11;3.92;;;1.58;;
72621;SDS011;60665;53.506;9.582;2023-08-06T12:29:44;3.20;;;1.42;;
72621;SDS011;60665;53.506;9.582;2023-08-06T12:32:10;4.20;;;1.60;;
72621;SDS011;60665;53.506;9.582;2023-08-06T12:34:40;5.75;;;2.10;;
72621;SDS011;60665;53.506;9.582;2023-08-06T12:37:06;4.72;;;1.70;;
72621;SDS011;60665;53.506;9.582;2023-08-06T12:39:35;4.13;;;1.75;;
72621;SDS011;60665;53.506;9.582;2023-08-06T12:42:01;5.07;;;1.75;;
72621;SDS011;60665;53.506;9.582;2023-08-06T12:44:27;5.70;;;1.98;;
72621;SDS011;60665;53.506;9.582;2023-08-06T12:46:53;4.93;;;1.90;;
72621;SDS011;60665;53.506;9.582;2023-08-06T12:49:18;4.07;;;1.85;;
72621;SDS011;60665;53.506;9.582;2023-08-06T12:51:46;4.05;;;2.00;;
72621;SDS011;60665;53.506;9.582;2023-08-06T12:54:12;6.50;;;2.22;;
72621;SDS011;60665;53.506;9.582;2023-08-06T12:56:37;6.45;;;2.22;;
72621;SDS011;60665;53.506;9.582;2023-08-06T12:59:02;4.65;;;2.03;;
72621;SDS011;60665;53.506;9.582;2023-08-06T13:01:28;6.80;;;2.13;;
72621;SDS011;60665;53.506;9.582;2023-08-06T13:03:53;4.90;;;1.80;;
72621;SDS011;60665;53.506;9.582;2023-08-06T13:06:18;5.03;;;2.17;;
72621;SDS011;60665;53.506;9.582;2023-08-06T13:08:44;7.30;;;2.30;;
72621;SDS011;60665;53.506;9.582;2023-08-06T13:11:09;6.25;;;2.40;;
72621;SDS011;60665;53.506;9.582;2023-08-06T13:13:35;5.45;;;2.42;;
72621;SDS011;60665;53.506;9.582;2023-08-06T13:16:00;5.07;;;2.15;;
72621;SDS011;60665;53.506;9.582;2023-08-06T13:18:26;6.55;;;3.22;;
72621;SDS011;60665;53.506;9.582;2023-08-06T13:20:55;4.47;;;2.28;;
72621;SDS011;60665;53.506;9.582;2023-08-06T13:23:20;5.82;;;2.10;;
72621;SDS011;60665;53.506;9.582;2023-08-06T13:25:46;4.40;;;1.98;;
72621;SDS011;60665;53.506;9.582;2023-08-06T13:28:11;7.47;;;2.40;;
72621;SDS011;60665;53.506;9.582;2023-08-06T13:30:38;6.10;;;2.47;;
72621;SDS011;60665;53.506;9.582;2023-08-06T13:33:07;4.22;;;2.05;;
72621;SDS011;60665;53.506;9.582;2023-08-06T13:35:33;5.03;;;2.50;;
72621;SDS011;60665;53.506;9.582;2023-08-06T13:37:58;4.72;;;2.30;;
72621;SDS011;60665;53.506;9.582;2023-08-06T13:40:24;4.70;;;1.85;;
72621;SDS011;60665;53.506;9.582;2023-08-06T13:42:49;4.13;;;2.28;;
72621;SDS011;60665;53.506;9.582;2023-08-06T13:45:15;4.93;;;2.28;;
72621;SDS011;60665;53.506;9.582;2023-08-06T13:47:40;4.93;;;1.90;;
72621;SDS011;60665;53.506;9.582;2023-08-06T13:50:06;5.25;;;2.45;;
72621;SDS011;60665;53.506;9.582;2023-08-06T13:52:32;4.65;;;2.40;;
72621;SDS011;60665;53.506;9.582;2023-08-06T13:54:57;6.60;;;2.40;;
72621;SDS011;60665;53.506;9.582;2023-08-06T13:57:22;4.32;;;2.22;;
72621;SDS011;60665;53.506;9.582;2023-08-06T13:59:48;5.03;;;2.15;;
72621;SDS011;60665;53.506;9.582;2023-08-06T14:02:13;4.50;;;2.05;;
72621;SDS011;60665;53.506;9.582;2023-08-06T14:04:39;5.10;;;2.28;;
72621;SDS011;60665;53.506;9.582;2023-08-06T14:07:05;6.00;;;2.42;;
72621;SDS011;60665;53.506;9.582;2023-08-06T14:09:30;5.40;;;2.42;;
72621;SDS011;60665;53.506;9.582;2023-08-06T14:11:56;4.95;;;2.33;;
72621;SDS011;60665;53.506;9.582;2023-08-06T14:14:21;5.18;;;2.30;;
72621;SDS011;60665;53.506;9.582;2023-08-06T14:16:52;5.68;;;2.95;;
72621;SDS011;60665;53.506;9.582;2023-08-06T14:19:18;4.55;;;2.22;;
72621;SDS011;60665;53.506;9.582;2023-08-06T14:21:43;6.78;;;2.20;;
72621;SDS011;60665;53.506;9.582;2023-08-06T14:24:09;6.93;;;2.03;;
72621;SDS011;60665;53.506;9.582;2023-08-06T14:26:34;6.55;;;1.80;;
72621;SDS011;60665;53.506;9.582;2023-08-06T14:29:00;6.63;;;3.47;;
72621;SDS011;60665;53.506;9.582;2023-08-06T14:31:26;8.00;;;3.30;;
72621;SDS011;60665;53.506;9.582;2023-08-06T14:33:51;4.78;;;1.80;;
72621;SDS011;60665;53.506;9.582;2023-08-06T14:36:19;3.97;;;1.80;;
72621;SDS011;60665;53.506;9.582;2023-08-06T14:38:44;4.78;;;1.60;;
72621;SDS011;60665;53.506;9.582;2023-08-06T14:41:10;3.42;;;1.48;;
72621;SDS011;60665;53.506;9.582;2023-08-06T14:43:35;3.58;;;1.60;;
72621;SDS011;60665;53.506;9.582;2023-08-06T14:46:01;3.17;;;1.17;;
72621;SDS011;60665;53.506;9.582;2023-08-06T14:48:26;3.47;;;1.50;;
72621;SDS011;60665;53.506;9.582;2023-08-06T14:50:53;3.45;;;1.40;;
72621;SDS011;60665;53.506;9.582;2023-08-06T14:53:19;4.95;;;1.30;;
72621;SDS011;60665;53.506;9.582;2023-08-06T14:55:44;4.28;;;1.45;;